createdAt,value
2023-04-19T00:00:24.323Z,35.80
2023-04-19T00:01:17.663Z,32.70
2023-04-19T00:01:51.053Z,33.70
2023-04-19T00:02:26.023Z,36.60
2023-04-19T00:03:01.222Z,34.00
2023-04-19T00:03:35.149Z,33.50
2023-04-19T00:04:09.667Z,33.50
2023-04-19T00:04:45.527Z,35.20
2023-04-19T00:05:20.402Z,36.00
2023-04-19T00:05:59.532Z,34.90
2023-04-19T00:06:32.841Z,33.30
2023-04-19T00:07:06.708Z,39.30
2023-04-19T00:07:40.074Z,37.10
2023-04-19T00:08:13.904Z,34.30
2023-04-19T00:08:47.518Z,31.20
2023-04-19T00:09:20.987Z,36.70
2023-04-19T00:09:54.445Z,40.10
2023-04-19T00:10:30.650Z,34.90
2023-04-19T00:11:05.820Z,33.30
2023-04-19T00:11:43.299Z,34.50
2023-04-19T00:12:18.449Z,34.60
2023-04-19T00:12:52.350Z,33.20
2023-04-19T00:13:26.226Z,35.90
2023-04-19T00:13:59.636Z,35.30
2023-04-19T00:14:32.872Z,34.70
2023-04-19T00:15:06.978Z,33.60
2023-04-19T00:15:40.595Z,34.50
2023-04-19T00:16:13.909Z,33.00
2023-04-19T00:16:47.612Z,34.70
2023-04-19T00:17:21.567Z,34.80
2023-04-19T00:17:55.145Z,34.80
2023-04-19T00:18:28.594Z,33.90
2023-04-19T00:19:02.029Z,31.80
2023-04-19T00:19:35.755Z,34.20
2023-04-19T00:20:10.176Z,34.00
2023-04-19T00:20:44.919Z,32.50
2023-04-19T00:21:18.521Z,34.10
2023-04-19T00:21:52.056Z,31.80
2023-04-19T00:22:25.621Z,35.00
2023-04-19T00:22:59.440Z,35.90
2023-04-19T00:23:32.818Z,33.20
2023-04-19T00:24:06.531Z,38.10
2023-04-19T00:24:41.217Z,35.10
2023-04-19T00:25:14.702Z,36.10
2023-04-19T00:25:49.316Z,35.10
2023-04-19T00:26:22.807Z,32.20
2023-04-19T00:26:57.526Z,32.60
2023-04-19T00:27:31.011Z,34.00
2023-04-19T00:28:05.888Z,35.80
2023-04-19T00:28:39.214Z,33.90
2023-04-19T00:29:12.663Z,33.70
2023-04-19T00:29:46.231Z,33.40
2023-04-19T00:30:19.738Z,33.60
2023-04-19T00:31:00.398Z,33.80
2023-04-19T00:31:33.951Z,34.00
2023-04-19T00:32:11.414Z,32.80
2023-04-19T00:32:44.962Z,31.00
2023-04-19T00:33:18.480Z,34.10
2023-04-19T00:33:52.019Z,33.10
2023-04-19T00:34:25.443Z,31.70
2023-04-19T00:35:01.985Z,33.10
2023-04-19T00:35:38.017Z,33.00
2023-04-19T00:36:11.460Z,34.90
2023-04-19T00:36:45.612Z,34.60
2023-04-19T00:37:19.676Z,32.90
2023-04-19T00:37:55.410Z,33.30
2023-04-19T00:38:29.038Z,33.10
2023-04-19T00:39:02.667Z,36.00
2023-04-19T00:39:36.302Z,35.10
2023-04-19T00:40:12.508Z,33.80
2023-04-19T00:40:46.920Z,34.20
2023-04-19T00:41:20.460Z,31.90
2023-04-19T00:41:54.350Z,33.70
2023-04-19T00:42:28.012Z,33.60
2023-04-19T00:43:01.493Z,32.50
2023-04-19T00:43:35.045Z,34.10
2023-04-19T00:44:08.769Z,31.50
2023-04-19T00:44:42.730Z,32.40
2023-04-19T00:45:16.301Z,34.80
2023-04-19T00:45:50.105Z,35.60
2023-04-19T00:46:26.186Z,33.40
2023-04-19T00:47:01.163Z,34.20
2023-04-19T00:47:36.770Z,34.40
2023-04-19T00:48:10.608Z,33.00
2023-04-19T00:48:45.724Z,34.50
2023-04-19T00:49:21.359Z,37.60
2023-04-19T00:49:56.427Z,35.00
2023-04-19T00:50:30.928Z,35.30
2023-04-19T00:51:10.721Z,37.00
2023-04-19T00:51:44.857Z,33.90
2023-04-19T00:52:18.375Z,35.50
2023-04-19T00:52:55.309Z,34.60
2023-04-19T00:53:31.535Z,36.10
2023-04-19T00:54:05.992Z,33.50
2023-04-19T00:54:41.495Z,38.30
2023-04-19T00:55:15.719Z,35.10
2023-04-19T00:55:51.780Z,36.50
2023-04-19T00:56:30.228Z,34.40
2023-04-19T00:57:03.877Z,37.50
2023-04-19T00:57:47.746Z,38.10
2023-04-19T00:58:23.023Z,33.80
2023-04-19T00:58:57.225Z,33.00
2023-04-19T00:59:31.539Z,34.30
2023-04-19T01:00:13.428Z,35.10
2023-04-19T01:00:51.331Z,33.80
2023-04-19T01:01:26.911Z,34.90
2023-04-19T01:02:00.804Z,37.20
2023-04-19T01:02:48.006Z,35.20
2023-04-19T01:03:23.182Z,38.00
2023-04-19T01:03:59.523Z,38.00
2023-04-19T01:04:35.154Z,36.10
2023-04-19T01:05:14.336Z,33.10
2023-04-19T01:05:49.349Z,32.90
2023-04-19T01:06:22.943Z,33.70
2023-04-19T01:07:01.487Z,38.00
2023-04-19T01:07:36.897Z,35.50
2023-04-19T01:08:10.552Z,35.90
2023-04-19T01:08:43.802Z,38.80
2023-04-19T01:09:17.325Z,38.10
2023-04-19T01:09:50.933Z,41.40
2023-04-19T01:10:25.372Z,37.50
2023-04-19T01:11:00.186Z,37.60
2023-04-19T01:11:34.491Z,36.40
2023-04-19T01:12:07.892Z,37.60
2023-04-19T01:12:41.669Z,40.00
2023-04-19T01:13:17.242Z,37.70
2023-04-19T01:13:51.161Z,37.90
2023-04-19T01:14:24.573Z,36.90
2023-04-19T01:14:58.014Z,39.20
2023-04-19T01:15:34.573Z,36.70
2023-04-19T01:16:08.071Z,40.40
2023-04-19T01:16:41.775Z,43.80
2023-04-19T01:17:15.424Z,40.40
2023-04-19T01:17:49.037Z,41.60
2023-04-19T01:18:24.715Z,39.80
2023-04-19T01:18:58.293Z,37.20
2023-04-19T01:19:32.912Z,41.40
2023-04-19T01:20:08.250Z,39.50
2023-04-19T01:20:41.914Z,40.50
2023-04-19T01:21:16.080Z,38.20
2023-04-19T01:21:50.239Z,37.20
2023-04-19T01:22:23.742Z,37.70
2023-04-19T01:22:57.318Z,42.10
2023-04-19T01:23:30.935Z,41.80
2023-04-19T01:24:06.803Z,42.90
2023-04-19T01:24:40.358Z,38.60
2023-04-19T01:25:15.927Z,36.80
2023-04-19T01:25:50.355Z,36.90
2023-04-19T01:26:23.700Z,38.70
2023-04-19T01:26:57.258Z,35.20
2023-04-19T01:27:31.326Z,40.50
2023-04-19T01:28:05.091Z,39.60
2023-04-19T01:28:38.516Z,38.40
2023-04-19T01:29:11.989Z,36.50
2023-04-19T01:29:45.654Z,43.30
2023-04-19T01:30:19.080Z,36.80
2023-04-19T01:30:54.474Z,36.70
2023-04-19T01:31:27.931Z,37.80
2023-04-19T01:32:01.459Z,35.10
2023-04-19T01:32:34.983Z,37.70
2023-04-19T01:33:08.350Z,37.50
2023-04-19T01:33:41.716Z,39.50
2023-04-19T01:34:16.153Z,40.40
2023-04-19T01:34:50.994Z,39.90
2023-04-19T01:35:24.535Z,38.40
2023-04-19T01:35:57.901Z,38.80
2023-04-19T01:36:31.477Z,38.70
2023-04-19T01:37:04.939Z,38.10
2023-04-19T01:37:38.302Z,38.20
2023-04-19T01:38:11.718Z,35.30
2023-04-19T01:38:50.606Z,38.60
2023-04-19T01:39:26.755Z,37.80
2023-04-19T01:40:00.780Z,35.80
2023-04-19T01:40:38.030Z,38.50
2023-04-19T01:41:11.357Z,37.20
2023-04-19T01:41:46.929Z,37.40
2023-04-19T01:42:20.275Z,41.30
2023-04-19T01:42:53.909Z,38.70
2023-04-19T01:43:27.293Z,41.10
2023-04-19T01:44:01.132Z,39.40
2023-04-19T01:44:35.045Z,37.90
2023-04-19T01:45:09.218Z,36.80
2023-04-19T01:45:44.325Z,39.90
2023-04-19T01:46:18.883Z,40.20
2023-04-19T01:46:52.564Z,38.20
2023-04-19T01:47:26.320Z,37.80
2023-04-19T01:48:01.833Z,37.50
2023-04-19T01:48:35.566Z,37.90
2023-04-19T01:51:18.304Z,39.80
2023-04-19T01:51:51.734Z,37.00
2023-04-19T01:52:25.234Z,33.20
2023-04-19T01:52:59.730Z,34.80
2023-04-19T01:53:33.145Z,34.20
2023-04-19T01:54:06.650Z,35.90
2023-04-19T01:54:40.074Z,35.00
2023-04-19T01:55:14.126Z,41.10
2023-04-19T01:55:47.856Z,39.10
2023-04-19T01:56:22.248Z,39.30
2023-04-19T01:56:55.788Z,38.40
2023-04-19T01:57:29.215Z,37.60
2023-04-19T01:58:03.840Z,36.20
2023-04-19T01:58:39.093Z,38.50
2023-04-19T01:59:12.697Z,37.50
2023-04-19T01:59:46.590Z,39.80
2023-04-19T02:00:20.599Z,36.50
2023-04-19T02:00:54.310Z,38.50
2023-04-19T02:01:27.861Z,39.20
2023-04-19T02:02:01.641Z,41.90
2023-04-19T02:02:38.193Z,37.10
2023-04-19T02:03:11.931Z,37.00
2023-04-19T02:03:45.745Z,39.90
2023-04-19T02:04:21.543Z,38.40
2023-04-19T02:04:55.044Z,38.30
2023-04-19T02:05:28.472Z,38.60
2023-04-19T02:06:01.988Z,40.10
2023-04-19T02:06:35.447Z,37.20
2023-04-19T02:07:10.791Z,40.90
2023-04-19T02:07:44.329Z,39.90
2023-04-19T02:08:18.275Z,40.00
2023-04-19T02:08:52.991Z,39.90
2023-04-19T02:09:29.259Z,37.80
2023-04-19T02:10:02.722Z,39.70
2023-04-19T02:10:36.764Z,40.30
2023-04-19T02:11:17.537Z,38.70
2023-04-19T02:11:54.120Z,36.30
2023-04-19T02:12:29.231Z,38.50
2023-04-19T02:13:02.644Z,39.40
2023-04-19T02:13:36.866Z,37.20
2023-04-19T02:14:13.226Z,39.30
2023-04-19T02:14:46.837Z,37.50
2023-04-19T02:15:20.386Z,38.80
2023-04-19T02:15:53.857Z,40.90
2023-04-19T02:16:28.280Z,37.40
2023-04-19T02:17:01.792Z,38.10
2023-04-19T02:17:36.120Z,38.00
2023-04-19T02:18:09.990Z,42.30
2023-04-19T02:18:43.414Z,39.40
2023-04-19T02:19:16.771Z,38.50
2023-04-19T02:19:50.209Z,42.60
2023-04-19T02:20:24.817Z,37.80
2023-04-19T02:20:59.776Z,38.90
2023-04-19T02:21:33.449Z,39.10
2023-04-19T02:22:06.899Z,38.80
2023-04-19T02:22:40.736Z,37.40
2023-04-19T02:23:14.329Z,36.40
2023-04-19T02:23:47.868Z,40.90
2023-04-19T02:24:22.544Z,38.80
2023-04-19T02:24:56.088Z,37.40
2023-04-19T02:25:34.325Z,40.40
2023-04-19T02:26:07.860Z,37.90
2023-04-19T02:26:41.553Z,41.50
2023-04-19T02:27:15.116Z,40.10
2023-04-19T02:27:48.599Z,39.90
2023-04-19T02:28:24.416Z,36.20
2023-04-19T02:28:57.910Z,38.20
2023-04-19T02:29:34.164Z,39.10
2023-04-19T02:30:08.489Z,40.40
2023-04-19T02:30:42.296Z,39.20
2023-04-19T02:31:15.933Z,36.20
2023-04-19T02:31:50.475Z,36.70
2023-04-19T02:32:24.139Z,39.60
2023-04-19T02:32:58.999Z,40.50
2023-04-19T02:33:35.953Z,37.60
2023-04-19T02:34:09.422Z,39.00
2023-04-19T02:34:43.105Z,34.80
2023-04-19T02:35:17.488Z,39.00
2023-04-19T02:35:51.055Z,38.90
2023-04-19T02:36:24.600Z,39.90
2023-04-19T02:36:58.278Z,39.00
2023-04-19T02:37:31.851Z,39.10
2023-04-19T02:38:05.421Z,40.30
2023-04-19T02:38:38.923Z,38.20
2023-04-19T02:39:12.611Z,36.20
2023-04-19T02:39:46.520Z,34.30
2023-04-19T02:40:19.875Z,35.40
2023-04-19T02:40:53.253Z,37.30
2023-04-19T02:41:26.804Z,37.80
2023-04-19T02:42:01.401Z,37.30
2023-04-19T02:42:35.089Z,38.10
2023-04-19T02:43:08.469Z,38.70
2023-04-19T02:43:42.028Z,35.20
2023-04-19T02:44:15.772Z,38.50
2023-04-19T02:44:49.968Z,39.40
2023-04-19T02:45:30.872Z,36.70
2023-04-19T02:46:04.338Z,41.00
2023-04-19T02:46:40.276Z,39.50
2023-04-19T02:47:16.659Z,37.50
2023-04-19T02:47:49.976Z,34.70
2023-04-19T02:48:23.285Z,38.30
2023-04-19T02:48:56.687Z,37.70
2023-04-19T02:49:33.322Z,41.80
2023-04-19T02:50:07.713Z,39.10
2023-04-19T02:50:42.698Z,37.70
2023-04-19T02:51:17.836Z,38.90
2023-04-19T02:51:52.155Z,39.10
2023-04-19T02:52:27.115Z,38.10
2023-04-19T02:53:00.757Z,43.70
2023-04-19T02:53:34.606Z,39.10
2023-04-19T02:54:07.882Z,36.20
2023-04-19T02:54:41.208Z,39.60
2023-04-19T02:55:14.531Z,39.10
2023-04-19T02:55:48.033Z,38.60
2023-04-19T02:56:23.764Z,39.40
2023-04-19T02:56:57.891Z,39.50
2023-04-19T02:57:31.404Z,39.70
2023-04-19T02:58:04.917Z,40.40
2023-04-19T02:58:39.347Z,41.10
2023-04-19T02:59:12.985Z,39.40
2023-04-19T02:59:46.592Z,40.50
2023-04-19T03:00:21.220Z,40.50
2023-04-19T03:01:04.880Z,36.60
2023-04-19T03:01:38.381Z,39.50
2023-04-19T03:02:12.489Z,40.50
2023-04-19T03:02:46.149Z,41.20
2023-04-19T03:03:19.658Z,34.50
2023-04-19T03:03:53.151Z,38.30
2023-04-19T03:04:27.363Z,37.00
2023-04-19T03:05:01.566Z,35.70
2023-04-19T03:05:35.334Z,37.50
2023-04-19T03:06:09.266Z,37.80
2023-04-19T03:06:44.570Z,34.80
2023-04-19T03:07:19.254Z,36.80
2023-04-19T03:07:52.621Z,37.90
2023-04-19T03:08:26.898Z,38.20
2023-04-19T03:09:00.465Z,37.50
2023-04-19T03:09:34.029Z,37.30
2023-04-19T03:10:08.276Z,38.60
2023-04-19T03:10:41.757Z,36.30
2023-04-19T03:11:19.053Z,36.00
2023-04-19T03:11:53.514Z,34.80
2023-04-19T03:12:26.923Z,35.60
2023-04-19T03:13:00.201Z,35.90
2023-04-19T03:13:33.616Z,38.10
2023-04-19T03:14:06.918Z,35.10
2023-04-19T03:14:40.209Z,36.70
2023-04-19T03:15:13.695Z,35.30
2023-04-19T03:15:47.896Z,38.20
2023-04-19T03:16:22.173Z,36.80
2023-04-19T03:16:55.995Z,37.60
2023-04-19T03:17:29.297Z,34.40
2023-04-19T03:18:02.711Z,37.60
2023-04-19T03:18:37.171Z,33.60
2023-04-19T03:19:10.927Z,39.90
2023-04-19T03:19:48.978Z,34.60
2023-04-19T03:20:22.554Z,36.60
2023-04-19T03:20:56.430Z,36.60
2023-04-19T03:21:30.156Z,34.80
2023-04-19T03:22:03.563Z,36.70
2023-04-19T03:22:37.178Z,36.80
2023-04-19T03:23:11.110Z,38.50
2023-04-19T03:23:44.981Z,34.50
2023-04-19T03:24:29.248Z,37.90
2023-04-19T03:25:03.413Z,36.90
2023-04-19T03:25:36.862Z,35.70
2023-04-19T03:26:21.238Z,36.20
2023-04-19T03:26:58.141Z,36.40
2023-04-19T03:27:36.346Z,37.10
2023-04-19T03:28:12.752Z,34.10
2023-04-19T03:29:06.391Z,36.90
2023-04-19T03:29:39.857Z,35.10
2023-04-19T03:30:16.763Z,36.50
2023-04-19T03:30:50.622Z,35.00
2023-04-19T03:31:24.258Z,33.80
2023-04-19T03:31:58.274Z,36.90
2023-04-19T03:32:32.443Z,33.70
2023-04-19T03:33:06.459Z,36.10
2023-04-19T03:33:40.465Z,40.50
2023-04-19T03:34:14.423Z,35.60
2023-04-19T03:34:50.173Z,36.10
2023-04-19T03:35:29.303Z,37.30
2023-04-19T03:36:04.120Z,37.50
2023-04-19T03:36:39.548Z,37.40
2023-04-19T03:37:13.184Z,35.60
2023-04-19T03:37:46.969Z,37.90
2023-04-19T03:38:20.490Z,38.20
2023-04-19T03:38:54.027Z,40.20
2023-04-19T03:39:28.858Z,36.10
2023-04-19T03:40:06.819Z,35.50
2023-04-19T03:40:40.514Z,41.10
2023-04-19T03:41:25.932Z,38.00
2023-04-19T03:42:13.617Z,31.10
2023-04-19T03:42:53.380Z,30.20
2023-04-19T03:43:32.903Z,34.60
2023-04-19T03:44:06.363Z,37.20
2023-04-19T03:44:40.426Z,35.10
2023-04-19T03:45:14.351Z,36.00
2023-04-19T03:45:51.196Z,35.40
2023-04-19T03:46:25.411Z,37.50
2023-04-19T03:46:58.896Z,36.10
2023-04-19T03:47:34.417Z,34.20
2023-04-19T03:48:08.099Z,35.50
2023-04-19T03:48:42.033Z,35.30
2023-04-19T03:49:15.569Z,40.00
2023-04-19T03:49:50.544Z,39.90
2023-04-19T03:50:24.383Z,38.20
2023-04-19T03:50:58.501Z,41.00
2023-04-19T03:51:32.224Z,38.00
2023-04-19T03:52:05.659Z,39.40
2023-04-19T03:52:40.102Z,37.00
2023-04-19T03:53:14.459Z,36.00
2023-04-19T03:53:47.762Z,39.60
2023-04-19T03:54:23.747Z,40.60
2023-04-19T03:54:57.135Z,38.50
2023-04-19T03:55:40.476Z,36.80
2023-04-19T03:56:14.112Z,39.10
2023-04-19T03:56:47.975Z,40.30
2023-04-19T03:57:22.514Z,35.10
2023-04-19T03:57:56.070Z,40.00
2023-04-19T03:58:40.039Z,38.80
2023-04-19T03:59:14.776Z,37.10
2023-04-19T03:59:48.947Z,40.80
2023-04-19T04:00:22.907Z,41.40
2023-04-19T04:01:01.489Z,40.70
2023-04-19T04:01:34.926Z,39.80
2023-04-19T04:02:08.551Z,39.00
2023-04-19T04:02:42.191Z,40.50
2023-04-19T04:03:16.345Z,43.70
2023-04-19T04:03:50.536Z,38.20
2023-04-19T04:04:24.952Z,39.50
2023-04-19T04:04:58.832Z,44.70
2023-04-19T04:05:33.134Z,41.90
2023-04-19T04:06:07.644Z,41.10
2023-04-19T04:06:40.992Z,39.40
2023-04-19T04:07:14.535Z,40.60
2023-04-19T04:07:48.187Z,42.20
2023-04-19T04:08:25.202Z,42.70
2023-04-19T04:08:58.898Z,41.00
2023-04-19T04:09:32.397Z,41.50
2023-04-19T04:10:06.873Z,41.30
2023-04-19T04:10:42.845Z,39.90
2023-04-19T04:11:16.646Z,44.20
2023-04-19T04:11:50.607Z,41.00
2023-04-19T04:12:26.142Z,40.50
2023-04-19T04:12:59.792Z,43.30
2023-04-19T04:13:54.946Z,39.20
2023-04-19T04:14:30.757Z,40.70
2023-04-19T04:15:05.589Z,39.20
2023-04-19T04:15:39.304Z,41.10
2023-04-19T04:16:13.480Z,40.40
2023-04-19T04:16:47.235Z,44.20
2023-04-19T04:17:21.682Z,43.10
2023-04-19T04:17:55.265Z,41.70
2023-04-19T04:18:32.223Z,42.10
2023-04-19T04:19:06.343Z,40.90
2023-04-19T04:19:41.194Z,42.40
2023-04-19T04:20:15.456Z,39.20
2023-04-19T04:20:48.909Z,41.70
2023-04-19T04:21:24.480Z,40.70
2023-04-19T04:21:58.017Z,41.60
2023-04-19T04:22:31.622Z,40.20
2023-04-19T04:23:05.480Z,42.10
2023-04-19T04:23:39.112Z,40.90
2023-04-19T04:24:14.785Z,40.10
2023-04-19T04:25:09.537Z,39.50
2023-04-19T04:25:47.749Z,40.40
2023-04-19T04:26:22.082Z,41.50
2023-04-19T04:27:24.391Z,37.90
2023-04-19T04:28:00.343Z,42.40
2023-04-19T04:28:34.493Z,38.30
2023-04-19T04:29:08.961Z,38.70
2023-04-19T04:29:44.248Z,38.90
2023-04-19T04:30:17.829Z,38.50
2023-04-19T04:30:52.149Z,40.70
2023-04-19T04:31:26.221Z,37.50
2023-04-19T04:31:59.911Z,40.90
2023-04-19T04:32:39.083Z,42.40
2023-04-19T04:33:12.581Z,44.10
2023-04-19T04:33:46.881Z,41.50
2023-04-19T04:34:20.743Z,42.10
2023-04-19T04:35:01.003Z,42.00
2023-04-19T04:35:43.720Z,41.70
2023-04-19T04:36:22.281Z,42.00
2023-04-19T04:36:56.507Z,44.00
2023-04-19T04:37:34.215Z,42.90
2023-04-19T04:38:17.550Z,41.40
2023-04-19T04:38:57.632Z,40.30
2023-04-19T04:39:30.949Z,42.70
2023-04-19T04:40:09.072Z,43.90
2023-04-19T04:40:42.438Z,38.30
2023-04-19T04:41:16.846Z,40.80
2023-04-19T04:41:52.154Z,44.00
2023-04-19T04:42:26.553Z,41.20
2023-04-19T04:43:01.168Z,39.00
2023-04-19T04:43:34.962Z,42.30
2023-04-19T04:44:12.545Z,45.40
2023-04-19T04:44:48.025Z,38.70
2023-04-19T04:45:22.645Z,39.20
2023-04-19T04:45:58.325Z,41.00
2023-04-19T04:46:35.918Z,40.50
2023-04-19T04:47:09.453Z,40.80
2023-04-19T04:47:47.959Z,40.00
2023-04-19T04:48:21.448Z,41.00
2023-04-19T04:48:54.779Z,38.80
2023-04-19T04:49:31.221Z,41.40
2023-04-19T04:50:06.523Z,41.00
2023-04-19T04:50:40.613Z,39.40
2023-04-19T04:51:14.438Z,38.20
2023-04-19T04:51:48.393Z,38.70
2023-04-19T04:52:22.032Z,42.30
2023-04-19T04:53:02.991Z,41.50
2023-04-19T04:53:38.456Z,41.00
2023-04-19T04:54:11.994Z,39.60
2023-04-19T04:54:48.375Z,39.30
2023-04-19T04:55:29.612Z,39.70
2023-04-19T04:56:03.485Z,42.20
2023-04-19T04:56:37.110Z,40.80
2023-04-19T04:57:10.688Z,38.00
2023-04-19T04:57:44.200Z,40.20
2023-04-19T04:58:25.044Z,43.40
2023-04-19T04:59:43.123Z,35.70
2023-04-19T05:00:17.861Z,42.10
2023-04-19T05:01:04.279Z,37.60
2023-04-19T05:01:40.690Z,37.40
2023-04-19T05:02:15.601Z,41.10
2023-04-19T05:02:49.760Z,39.50
2023-04-19T05:03:23.276Z,42.10
2023-04-19T05:04:01.457Z,37.90
2023-04-19T05:04:35.087Z,39.90
2023-04-19T05:05:11.441Z,39.80
2023-04-19T05:05:45.383Z,40.60
2023-04-19T05:06:18.988Z,41.20
2023-04-19T05:06:52.463Z,42.00
2023-04-19T05:07:28.901Z,38.10
2023-04-19T05:08:04.778Z,40.60
2023-04-19T05:08:38.222Z,38.90
2023-04-19T05:09:43.882Z,38.30
2023-04-19T05:10:18.069Z,38.00
2023-04-19T05:10:52.492Z,38.90
2023-04-19T05:11:27.749Z,40.50
2023-04-19T05:12:02.396Z,39.60
2023-04-19T05:12:38.415Z,40.50
2023-04-19T05:13:16.728Z,40.70
2023-04-19T05:13:50.055Z,38.40
2023-04-19T05:14:23.493Z,39.20
2023-04-19T05:14:58.197Z,37.90
2023-04-19T05:15:38.787Z,37.30
2023-04-19T05:16:13.367Z,38.00
2023-04-19T05:16:52.547Z,36.20
2023-04-19T05:17:34.346Z,36.20
2023-04-19T05:18:11.613Z,35.70
2023-04-19T05:18:46.679Z,40.10
2023-04-19T05:19:24.014Z,36.30
2023-04-19T05:20:07.708Z,37.30
2023-04-19T05:20:49.582Z,34.30
2023-04-19T05:21:39.616Z,36.00
2023-04-19T05:22:20.646Z,34.80
2023-04-19T05:23:05.852Z,34.80
2023-04-19T05:23:40.354Z,38.30
2023-04-19T05:24:14.028Z,39.50
2023-04-19T05:24:47.724Z,37.50
2023-04-19T05:25:22.035Z,36.70
2023-04-19T05:25:57.740Z,34.60
2023-04-19T05:26:32.845Z,43.00
2023-04-19T05:27:06.914Z,39.80
2023-04-19T05:27:40.414Z,40.10
2023-04-19T05:28:14.062Z,39.50
2023-04-19T05:28:53.097Z,36.20
2023-04-19T05:29:40.638Z,36.90
2023-04-19T05:30:22.690Z,37.00
2023-04-19T05:31:05.598Z,33.80
2023-04-19T05:31:45.767Z,40.50
2023-04-19T05:32:35.149Z,37.60
2023-04-19T05:33:13.257Z,36.30
2023-04-19T05:33:47.281Z,38.20
2023-04-19T05:34:22.207Z,36.00
2023-04-19T05:34:56.324Z,35.50
2023-04-19T05:35:30.261Z,37.70
2023-04-19T05:36:07.213Z,39.10
2023-04-19T05:36:43.208Z,37.70
2023-04-19T05:37:21.371Z,37.10
2023-04-19T05:37:58.780Z,37.70
2023-04-19T05:38:35.852Z,37.50
2023-04-19T05:39:13.563Z,34.50
2023-04-19T05:39:50.837Z,35.70
2023-04-19T05:40:32.271Z,37.00
2023-04-19T05:41:09.452Z,35.40
2023-04-19T05:41:45.561Z,33.40
2023-04-19T05:42:22.857Z,37.60
2023-04-19T05:42:57.805Z,36.80
2023-04-19T05:43:34.300Z,39.00
2023-04-19T05:44:08.550Z,37.40
2023-04-19T05:44:42.445Z,37.70
2023-04-19T05:45:19.226Z,34.50
2023-04-19T05:45:54.356Z,33.00
2023-04-19T05:46:31.262Z,37.50
2023-04-19T05:47:06.694Z,38.60
2023-04-19T05:48:00.763Z,34.00
2023-04-19T05:48:59.988Z,37.20
2023-04-19T05:49:33.532Z,34.10
2023-04-19T05:50:25.888Z,34.90
2023-04-19T05:51:19.201Z,35.30
2023-04-19T05:52:07.473Z,33.70
2023-04-19T05:52:46.765Z,34.50
2023-04-19T05:53:20.305Z,35.30
2023-04-19T05:53:56.617Z,36.20
2023-04-19T05:54:36.263Z,33.90
2023-04-19T05:55:10.880Z,36.80
2023-04-19T05:55:49.628Z,32.40
2023-04-19T05:56:23.300Z,35.30
2023-04-19T05:56:56.970Z,37.50
2023-04-19T05:57:30.738Z,33.70
2023-04-19T05:58:04.641Z,36.00
2023-04-19T05:58:38.207Z,34.00
2023-04-19T05:59:11.792Z,34.30
2023-04-19T05:59:45.550Z,33.70
2023-04-19T06:00:21.123Z,33.60
2023-04-19T06:01:02.503Z,33.60
2023-04-19T06:01:36.891Z,33.70
2023-04-19T06:02:11.339Z,32.80
2023-04-19T06:02:45.556Z,33.80
2023-04-19T06:03:20.225Z,35.20
2023-04-19T06:03:54.813Z,33.90
2023-04-19T06:04:28.908Z,29.70
2023-04-19T06:05:09.769Z,32.60
2023-04-19T06:05:43.695Z,31.10
2023-04-19T06:06:17.428Z,32.40
2023-04-19T06:06:51.713Z,36.20
2023-04-19T06:07:31.743Z,33.50
2023-04-19T06:08:09.677Z,32.80
2023-04-19T06:08:44.224Z,34.70
2023-04-19T06:09:18.862Z,35.40
2023-04-19T06:09:52.397Z,34.00
2023-04-19T06:10:31.302Z,32.90
2023-04-19T06:11:20.171Z,34.60
2023-04-19T06:12:00.429Z,34.10
2023-04-19T06:12:35.434Z,31.40
2023-04-19T06:13:09.061Z,30.50
2023-04-19T06:13:43.686Z,30.00
2023-04-19T06:14:17.835Z,32.00
2023-04-19T06:14:52.834Z,32.70
2023-04-19T06:15:26.371Z,31.40
2023-04-19T06:16:00.052Z,33.60
2023-04-19T06:16:33.767Z,30.40
2023-04-19T06:17:07.886Z,32.00
2023-04-19T06:17:42.387Z,30.60
2023-04-19T06:18:19.015Z,31.20
2023-04-19T06:18:53.445Z,32.50
2023-04-19T06:19:27.368Z,33.40
2023-04-19T06:20:01.464Z,30.80
2023-04-19T06:20:35.177Z,32.00
2023-04-19T06:21:08.787Z,31.10
2023-04-19T06:21:42.345Z,30.30
2023-04-19T06:22:15.885Z,33.60
2023-04-19T06:22:49.404Z,29.30
2023-04-19T06:25:07.221Z,27.10
2023-04-19T06:25:41.539Z,30.10
2023-04-19T06:26:19.838Z,28.00
2023-04-19T06:26:53.373Z,27.90
2023-04-19T06:27:27.603Z,31.10
2023-04-19T06:28:02.065Z,32.80
2023-04-19T06:28:38.086Z,31.20
2023-04-19T06:29:11.811Z,30.60
2023-04-19T06:29:45.539Z,32.20
2023-04-19T06:30:19.673Z,30.00
2023-04-19T06:31:53.035Z,29.40
2023-04-19T06:32:27.020Z,26.50
2023-04-19T06:33:00.793Z,29.90
2023-04-19T06:33:34.541Z,29.10
2023-04-19T06:34:08.062Z,28.30
2023-04-19T06:34:41.531Z,28.50
2023-04-19T06:35:15.927Z,29.60
2023-04-19T06:35:49.575Z,29.10
2023-04-19T06:36:23.076Z,29.30
2023-04-19T06:36:56.900Z,30.40
2023-04-19T06:37:30.379Z,29.00
2023-04-19T06:38:03.696Z,29.90
2023-04-19T06:38:38.645Z,28.30
2023-04-19T06:39:12.044Z,27.80
2023-04-19T06:39:46.321Z,28.70
2023-04-19T06:40:19.950Z,29.10
2023-04-19T06:40:53.198Z,29.20
2023-04-19T06:41:27.020Z,28.50
2023-04-19T06:42:00.424Z,29.70
2023-04-19T06:42:37.952Z,28.70
2023-04-19T06:43:12.984Z,27.60
2023-04-19T06:43:46.462Z,28.40
2023-04-19T06:44:19.795Z,29.40
2023-04-19T06:44:53.558Z,29.80
2023-04-19T06:45:26.879Z,28.20
2023-04-19T06:46:01.032Z,29.10
2023-04-19T06:46:34.732Z,28.50
2023-04-19T06:47:08.222Z,29.40
2023-04-19T06:47:42.109Z,29.20
2023-04-19T06:48:15.851Z,32.10
2023-04-19T06:48:49.304Z,28.10
2023-04-19T06:49:22.929Z,26.80
2023-04-19T06:49:57.974Z,28.30
2023-04-19T06:50:31.943Z,26.90
2023-04-19T06:51:05.642Z,29.70
2023-04-19T06:51:39.833Z,31.20
2023-04-19T06:52:13.213Z,27.80
2023-04-19T06:52:46.643Z,29.40
2023-04-19T06:53:20.330Z,29.70
2023-04-19T06:53:53.999Z,27.40
2023-04-19T06:54:30.163Z,29.10
2023-04-19T06:55:04.063Z,28.30
2023-04-19T06:55:37.717Z,30.70
2023-04-19T06:56:11.593Z,29.10
2023-04-19T06:56:49.873Z,29.10
2023-04-19T06:57:23.378Z,31.40
2023-04-19T06:57:56.928Z,28.70
2023-04-19T06:58:34.544Z,28.10
2023-04-19T06:59:16.886Z,29.80
2023-04-19T06:59:55.730Z,29.30
2023-04-19T07:00:30.353Z,27.10
2023-04-19T07:01:07.851Z,28.30
2023-04-19T07:01:41.610Z,29.70
2023-04-19T07:02:15.171Z,27.50
2023-04-19T07:02:51.009Z,27.00
2023-04-19T07:03:27.162Z,30.50
2023-04-19T07:04:01.813Z,28.50
2023-04-19T07:04:36.852Z,30.20
2023-04-19T07:05:10.633Z,28.70
2023-04-19T07:05:44.154Z,29.90
2023-04-19T07:06:17.514Z,28.70
2023-04-19T07:06:50.969Z,29.80
2023-04-19T07:07:24.415Z,30.80
2023-04-19T07:07:58.652Z,31.40
2023-04-19T07:08:48.274Z,32.30
2023-04-19T07:09:23.182Z,30.10
2023-04-19T07:09:56.688Z,29.40
2023-04-19T07:10:30.175Z,29.10
2023-04-19T07:11:03.774Z,30.00
2023-04-19T07:11:37.194Z,25.50
2023-04-19T07:12:11.109Z,27.70
2023-04-19T07:12:44.577Z,27.90
2023-04-19T07:13:18.165Z,27.30
2023-04-19T07:13:52.028Z,29.30
2023-04-19T07:14:25.594Z,28.90
2023-04-19T07:14:59.248Z,28.00
2023-04-19T07:15:32.790Z,26.30
2023-04-19T07:16:07.704Z,28.40
2023-04-19T07:16:41.755Z,26.40
2023-04-19T07:17:15.266Z,28.20
2023-04-19T07:17:48.852Z,26.30
2023-04-19T07:18:22.130Z,26.50
2023-04-19T07:18:55.588Z,27.00
2023-04-19T07:19:31.729Z,27.80
2023-04-19T07:20:06.786Z,26.60
2023-04-19T07:20:45.423Z,27.80
2023-04-19T07:21:19.350Z,26.80
2023-04-19T07:21:52.829Z,27.90
2023-04-19T07:22:26.300Z,25.90
2023-04-19T07:23:00.079Z,26.90
2023-04-19T07:23:33.624Z,24.80
2023-04-19T07:24:07.733Z,27.00
2023-04-19T07:24:42.244Z,27.20
2023-04-19T07:25:21.118Z,27.10
2023-04-19T07:25:54.965Z,25.10
2023-04-19T07:26:28.676Z,27.70
2023-04-19T07:27:02.616Z,26.10
2023-04-19T07:27:36.416Z,28.30
2023-04-19T07:28:10.086Z,23.90
2023-04-19T07:28:43.505Z,27.50
2023-04-19T07:29:18.018Z,25.70
2023-04-19T07:29:52.818Z,27.30
2023-04-19T07:30:26.263Z,24.30
2023-04-19T07:31:01.240Z,26.90
2023-04-19T07:31:35.117Z,25.70
2023-04-19T07:32:08.928Z,26.10
2023-04-19T07:32:42.509Z,25.10
2023-04-19T07:33:25.946Z,24.30
2023-04-19T07:34:01.318Z,24.40
2023-04-19T07:34:34.960Z,27.00
2023-04-19T07:35:08.776Z,25.60
2023-04-19T07:35:44.292Z,26.20
2023-04-19T07:36:17.852Z,25.20
2023-04-19T07:36:51.300Z,24.30
2023-04-19T07:37:24.663Z,23.90
2023-04-19T07:37:57.949Z,25.20
2023-04-19T07:38:31.333Z,23.60
2023-04-19T07:39:05.263Z,25.00
2023-04-19T07:39:39.567Z,23.20